Time,TemperatureF,DewpointF,PressureIn,WindDirection,WindDirectionDegrees,WindSpeedMPH,WindSpeedGustMPH,Humidity,HourlyPrecipIn,Conditions,Clouds,dailyrainin,SoftwareType,DateUTC
2013-08-10 00:12:00,74.3,73.0,30.07,East,90,0.0,0.0,96,0.00,,,0.00,weatherlink.com 1.10,2013-08-10 04:12:00,
2013-08-10 00:27:00,74.0,73.0,30.08,East,90,0.0,0.0,96,0.00,,,0.00,weatherlink.com 1.10,2013-08-10 04:27:00,
2013-08-10 00:42:00,73.5,72.0,30.08,East,90,0.0,0.0,96,0.00,,,0.00,weatherlink.com 1.10,2013-08-10 04:42:00,
2013-08-10 00:57:00,73.8,73.0,30.07,East,90,0.0,0.0,97,0.00,,,0.00,weatherlink.com 1.10,2013-08-10 04:57:00,
2013-08-10 01:12:00,73.7,73.0,30.07,East,91,0.0,0.0,97,0.01,,,0.01,weatherlink.com 1.10,2013-08-10 05:12:00,
2013-08-10 01:27:00,73.6,73.0,30.07,East,90,0.0,0.0,97,0.01,,,0.01,weatherlink.com 1.10,2013-08-10 05:27:00,
2013-08-10 01:42:00,73.7,73.0,30.07,East,89,0.0,0.0,97,0.01,,,0.01,weatherlink.com 1.10,2013-08-10 05:42:00,
2013-08-10 01:57:00,73.6,73.0,30.07,East,86,0.0,0.0,97,0.01,,,0.01,weatherlink.com 1.10,2013-08-10 05:57:00,
2013-08-10 02:12:00,73.2,72.0,30.07,East,86,0.0,0.0,97,0.00,,,0.01,weatherlink.com 1.10,2013-08-10 06:12:00,
2013-08-10 02:27:00,73.0,72.0,30.07,East,86,0.0,0.0,98,0.00,,,0.01,weatherlink.com 1.10,2013-08-10 06:27:00,
2013-08-10 02:42:00,72.9,72.0,30.07,East,86,0.0,0.0,98,0.00,,,0.01,weatherlink.com 1.10,2013-08-10 06:42:00,
2013-08-10 02:57:00,72.5,72.0,30.06,East,86,0.0,0.0,98,0.00,,,0.01,weatherlink.com 1.10,2013-08-10 06:57:00,
2013-08-10 03:12:00,72.7,72.0,30.06,East,86,0.0,0.0,98,0.00,,,0.01,weatherlink.com 1.10,2013-08-10 07:12:00,
2013-08-10 03:28:00,72.7,72.0,30.06,East,86,0.0,0.0,98,0.00,,,0.01,weatherlink.com 1.10,2013-08-10 07:28:00,
2013-08-10 03:43:00,72.5,72.0,30.06,East,86,0.0,0.0,98,0.00,,,0.01,weatherlink.com 1.10,2013-08-10 07:43:00,
2013-08-10 03:58:00,72.3,72.0,30.05,East,86,0.0,0.0,98,0.00,,,0.01,weatherlink.com 1.10,2013-08-10 07:58:00,
2013-08-10 04:13:00,72.4,72.0,30.05,East,86,0.0,0.0,98,0.00,,,0.01,weatherlink.com 1.10,2013-08-10 08:13:00,
2013-08-10 04:28:00,72.1,72.0,30.06,East,86,0.0,0.0,98,0.00,,,0.01,weatherlink.com 1.10,2013-08-10 08:28:00,
2013-08-10 04:43:00,71.7,71.0,30.06,East,86,0.0,0.0,98,0.00,,,0.01,weatherlink.com 1.10,2013-08-10 08:43:00,
2013-08-10 04:58:00,71.7,71.0,30.06,East,86,0.0,0.0,98,0.00,,,0.01,weatherlink.com 1.10,2013-08-10 08:58:00,
2013-08-10 05:13:00,71.3,71.0,30.06,East,86,0.0,0.0,98,0.00,,,0.01,weatherlink.com 1.10,2013-08-10 09:13:00,
2013-08-10 05:28:00,71.5,71.0,30.06,East,86,0.0,0.0,99,0.00,,,0.01,weatherlink.com 1.10,2013-08-10 09:28:00,
2013-08-10 05:43:00,71.8,72.0,30.06,East,86,0.0,0.0,99,0.00,,,0.01,weatherlink.com 1.10,2013-08-10 09:43:00,
2013-08-10 05:58:00,72.6,72.0,30.06,SE,134,0.0,0.0,99,0.00,,,0.01,weatherlink.com 1.10,2013-08-10 09:58:00,
2013-08-10 06:13:00,72.1,72.0,30.07,SE,134,0.0,0.0,99,0.00,,,0.01,weatherlink.com 1.10,2013-08-10 10:13:00,
2013-08-10 06:28:00,71.8,72.0,30.07,SE,134,0.0,0.0,99,0.00,,,0.01,weatherlink.com 1.10,2013-08-10 10:28:00,
2013-08-10 06:43:00,72.1,72.0,30.07,NNE,25,0.0,1.0,99,0.00,,,0.01,weatherlink.com 1.10,2013-08-10 10:43:00,
2013-08-10 06:58:00,71.9,72.0,30.07,North,5,0.0,1.0,99,0.00,,,0.01,weatherlink.com 1.10,2013-08-10 10:58:00,
2013-08-10 07:13:00,72.1,72.0,30.07,NNE,13,0.0,0.0,99,0.00,,,0.01,weatherlink.com 1.10,2013-08-10 11:13:00,
2013-08-10 07:28:00,72.5,72.0,30.08,NNE,13,0.0,0.0,99,0.00,,,0.01,weatherlink.com 1.10,2013-08-10 11:28:00,
2013-08-10 07:43:00,73.4,73.0,30.07,SE,134,0.0,1.0,99,0.00,,,0.01,weatherlink.com 1.10,2013-08-10 11:43:00,
2013-08-10 07:58:00,74.2,74.0,30.08,SE,133,0.0,0.0,99,0.00,,,0.01,weatherlink.com 1.10,2013-08-10 11:58:00,
2013-08-10 08:13:00,74.8,75.0,30.08,ESE,111,0.0,0.0,99,0.00,,,0.01,weatherlink.com 1.10,2013-08-10 12:13:00,
2013-08-10 08:28:00,75.5,75.0,30.09,East,95,0.0,0.0,99,0.00,,,0.01,weatherlink.com 1.10,2013-08-10 12:28:00,
2013-08-10 08:43:00,76.7,76.0,30.10,SSE,162,0.0,0.0,99,0.00,,,0.01,weatherlink.com 1.10,2013-08-10 12:43:00,
2013-08-10 08:58:00,78.1,78.0,30.10,SSE,162,1.0,3.0,99,0.00,,,0.01,weatherlink.com 1.10,2013-08-10 12:58:00,
2013-08-10 09:13:00,78.5,78.0,30.10,ESE,120,4.0,7.0,97,0.00,,,0.01,weatherlink.com 1.10,2013-08-10 13:13:00,
2013-08-10 09:28:00,80.3,79.0,30.10,SE,129,1.0,5.0,95,0.00,,,0.01,weatherlink.com 1.10,2013-08-10 13:28:00,
2013-08-10 09:43:00,81.3,79.0,30.10,South,180,6.0,8.0,92,0.00,,,0.01,weatherlink.com 1.10,2013-08-10 13:43:00,
2013-08-10 09:58:00,82.8,79.0,30.10,SSE,162,4.0,8.0,88,0.00,,,0.01,weatherlink.com 1.10,2013-08-10 13:58:00,
2013-08-10 10:13:00,83.6,78.0,30.10,SE,143,6.0,8.0,84,0.00,,,0.01,weatherlink.com 1.10,2013-08-10 14:13:00,
2013-08-10 10:29:00,84.7,78.0,30.11,ESE,118,3.0,10.0,81,0.00,,,0.01,weatherlink.com 1.10,2013-08-10 14:29:00,
2013-08-10 10:44:00,85.3,77.0,30.11,ESE,105,6.0,9.0,77,0.00,,,0.01,weatherlink.com 1.10,2013-08-10 14:44:00,
2013-08-10 10:59:00,86.1,77.0,30.11,ENE,58,7.0,11.0,75,0.00,,,0.01,weatherlink.com 1.10,2013-08-10 14:59:00,
2013-08-10 11:14:00,87.0,77.0,30.11,SE,132,4.0,9.0,73,0.00,,,0.01,weatherlink.com 1.10,2013-08-10 15:14:00,
2013-08-10 11:29:00,88.0,77.0,30.12,SSE,149,4.0,8.0,69,0.00,,,0.01,weatherlink.com 1.10,2013-08-10 15:29:00,
2013-08-10 11:44:00,88.2,77.0,30.12,SE,139,4.0,8.0,70,0.00,,,0.01,weatherlink.com 1.10,2013-08-10 15:44:00,
2013-08-10 11:59:00,88.9,79.0,30.12,ESE,120,3.0,13.0,72,0.00,,,0.01,weatherlink.com 1.10,2013-08-10 15:59:00,
2013-08-10 12:14:00,89.9,78.0,30.12,SSE,165,5.0,10.0,69,0.00,,,0.01,weatherlink.com 1.10,2013-08-10 16:14:00,
2013-08-10 12:29:00,89.2,77.0,30.12,SE,141,5.0,9.0,68,0.00,,,0.01,weatherlink.com 1.10,2013-08-10 16:29:00,
2013-08-10 12:44:00,89.2,78.0,30.11,ESE,117,9.0,10.0,69,0.00,,,0.01,weatherlink.com 1.10,2013-08-10 16:44:00,
2013-08-10 12:59:00,89.9,78.0,30.11,SSW,210,0.0,7.0,67,0.00,,,0.01,weatherlink.com 1.10,2013-08-10 16:59:00,
2013-08-10 13:14:00,90.3,77.0,30.11,SE,135,2.0,9.0,64,0.00,,,0.01,weatherlink.com 1.10,2013-08-10 17:14:00,
2013-08-10 13:29:00,91.3,77.0,30.10,ESE,120,2.0,10.0,64,0.00,,,0.01,weatherlink.com 1.10,2013-08-10 17:29:00,
2013-08-10 13:44:00,91.3,76.0,30.10,SE,135,1.0,7.0,62,0.00,,,0.01,weatherlink.com 1.10,2013-08-10 17:44:00,
2013-08-10 13:59:00,91.9,76.0,30.10,SE,146,3.0,12.0,60,0.00,,,0.01,weatherlink.com 1.10,2013-08-10 17:59:00,
2013-08-10 14:14:00,91.0,76.0,30.10,SSE,148,3.0,7.0,62,0.00,,,0.01,weatherlink.com 1.10,2013-08-10 18:14:00,
2013-08-10 14:29:00,90.0,77.0,30.10,SSW,200,1.0,9.0,65,0.00,,,0.01,weatherlink.com 1.10,2013-08-10 18:29:00,
2013-08-10 14:44:00,90.3,75.0,30.09,ESE,120,4.0,9.0,60,0.00,,,0.01,weatherlink.com 1.10,2013-08-10 18:44:00,
2013-08-10 14:59:00,92.2,76.0,30.08,ESE,111,4.0,9.0,60,0.00,,,0.01,weatherlink.com 1.10,2013-08-10 18:59:00,
2013-08-10 15:14:00,92.8,74.0,30.07,ESE,122,7.0,12.0,54,0.00,,,0.01,weatherlink.com 1.10,2013-08-10 19:14:00,
2013-08-10 15:29:00,93.0,72.0,30.07,ESE,122,7.0,10.0,51,0.00,,,0.01,weatherlink.com 1.10,2013-08-10 19:29:00,
2013-08-10 15:44:00,93.6,75.0,30.06,SE,143,3.0,9.0,54,0.00,,,0.01,weatherlink.com 1.10,2013-08-10 19:44:00,
2013-08-10 15:59:00,93.6,74.0,30.06,ESE,117,2.0,9.0,53,0.00,,,0.01,weatherlink.com 1.10,2013-08-10 19:59:00,
2013-08-10 16:14:00,93.8,75.0,30.06,SE,141,3.0,8.0,54,0.00,,,0.01,weatherlink.com 1.10,2013-08-10 20:14:00,
2013-08-10 16:29:00,93.6,73.0,30.06,East,98,7.0,10.0,52,0.00,,,0.01,weatherlink.com 1.10,2013-08-10 20:29:00,
2013-08-10 16:44:00,93.5,74.0,30.05,SE,139,4.0,10.0,53,0.00,,,0.01,weatherlink.com 1.10,2013-08-10 20:44:00,
2013-08-10 16:59:00,92.9,74.0,30.05,SSE,149,3.0,12.0,55,0.00,,,0.01,weatherlink.com 1.10,2013-08-10 20:59:00,
2013-08-10 17:14:00,93.6,75.0,30.05,SE,130,5.0,8.0,54,0.00,,,0.01,weatherlink.com 1.10,2013-08-10 21:14:00,
2013-08-10 17:29:00,93.4,74.0,30.05,SE,124,9.0,9.0,53,0.00,,,0.01,weatherlink.com 1.10,2013-08-10 21:29:00,
2013-08-10 17:44:00,93.1,73.0,30.04,East,79,7.0,8.0,53,0.00,,,0.01,weatherlink.com 1.10,2013-08-10 21:44:00,
2013-08-10 17:59:00,93.0,73.0,30.04,ESE,104,5.0,8.0,53,0.00,,,0.01,weatherlink.com 1.10,2013-08-10 21:59:00,
2013-08-10 18:14:00,93.0,73.0,30.04,ESE,115,3.0,6.0,53,0.00,,,0.01,weatherlink.com 1.10,2013-08-10 22:14:00,
2013-08-10 18:29:00,93.0,74.0,30.04,ESE,108,1.0,6.0,55,0.00,,,0.01,weatherlink.com 1.10,2013-08-10 22:29:00,
2013-08-10 18:44:00,92.8,75.0,30.04,ENE,77,2.0,6.0,56,0.00,,,0.01,weatherlink.com 1.10,2013-08-10 22:44:00,
2013-08-10 18:59:00,92.1,75.0,30.04,SE,142,3.0,5.0,57,0.00,,,0.01,weatherlink.com 1.10,2013-08-10 22:59:00,
2013-08-10 19:14:00,91.5,74.0,30.05,East,92,3.0,7.0,57,0.00,,,0.01,weatherlink.com 1.10,2013-08-10 23:14:00,
2013-08-10 19:29:00,90.8,74.0,30.05,SSE,149,1.0,4.0,58,0.00,,,0.01,weatherlink.com 1.10,2013-08-10 23:29:00,
2013-08-10 19:44:00,89.4,74.0,30.05,SSE,155,0.0,3.0,61,0.00,,,0.01,weatherlink.com 1.10,2013-08-10 23:44:00,
2013-08-10 19:59:00,88.2,75.0,30.06,SE,136,0.0,2.0,65,0.00,,,0.01,weatherlink.com 1.10,2013-08-10 23:59:00,
2013-08-10 20:14:00,87.2,75.0,30.06,SE,133,0.0,2.0,68,0.00,,,0.01,weatherlink.com 1.10,2013-08-11 00:14:00,
2013-08-10 20:30:00,86.0,76.0,30.07,ESE,115,1.0,4.0,72,0.00,,,0.01,weatherlink.com 1.10,2013-08-11 00:30:00,
2013-08-10 20:45:00,86.0,76.0,30.07,East,99,3.0,5.0,73,0.00,,,0.01,weatherlink.com 1.10,2013-08-11 00:45:00,
2013-08-10 21:00:00,85.6,76.0,30.07,ENE,71,0.0,5.0,74,0.00,,,0.01,weatherlink.com 1.10,2013-08-11 01:00:00,
2013-08-10 21:15:00,85.3,77.0,30.08,East,96,2.0,3.0,75,0.00,,,0.01,weatherlink.com 1.10,2013-08-11 01:15:00,
2013-08-10 21:30:00,84.9,76.0,30.08,East,83,3.0,6.0,75,0.00,,,0.01,weatherlink.com 1.10,2013-08-11 01:30:00,
2013-08-10 21:45:00,84.3,75.0,30.09,ESE,116,0.0,7.0,74,0.00,,,0.01,weatherlink.com 1.10,2013-08-11 01:45:00,
2013-08-10 22:00:00,83.7,75.0,30.10,East,91,5.0,8.0,74,0.00,,,0.01,weatherlink.com 1.10,2013-08-11 02:00:00,
2013-08-10 22:15:00,83.1,75.0,30.11,ESE,121,2.0,7.0,76,0.00,,,0.01,weatherlink.com 1.10,2013-08-11 02:15:00,
2013-08-10 22:30:00,82.5,75.0,30.11,ESE,116,4.0,7.0,78,0.00,,,0.01,weatherlink.com 1.10,2013-08-11 02:30:00,
2013-08-10 22:45:00,81.9,75.0,30.11,SE,134,1.0,6.0,80,0.00,,,0.01,weatherlink.com 1.10,2013-08-11 02:45:00,
2013-08-10 23:00:00,81.6,76.0,30.12,ESE,115,1.0,5.0,82,0.00,,,0.01,weatherlink.com 1.10,2013-08-11 03:00:00,
2013-08-10 23:15:00,81.1,76.0,30.12,ENE,58,1.0,5.0,83,0.00,,,0.01,weatherlink.com 1.10,2013-08-11 03:15:00,
2013-08-10 23:45:00,80.2,75.0,30.13,ESE,110,0.0,3.0,85,0.00,,,0.01,weatherlink.com 1.10,2013-08-11 03:45:00,